Star Mariella — V7KK3 — position and weather

sailwx.info

Track history (hours):
 
Tides and Currents Weather Stations Pressure Air Temp Water Temp Dewpoint Dewpoint Depression Visibility Wind Speed Wind Dir Waves Ship Positions

Star Mariella

Last reported at 2017-Feb-19 17:08 UTC. Time now 2017-Feb-20 01:37 UTC.
Position N 54°05' E 007°45'.

Length 229 m; draft 12.2 m.

Type: Cargo ship. MMSI: 538002632.

Date/timePositionNaut miles runAvg speedWind from/ knotsBaromVisibWave heightAir tempDewpointWater temp
2017-Feb-19 17:08N 54°05' E 007°45'0 0.0
2017-Feb-19 11:17N 54°05' E 007°45'0 0.0
2017-Feb-19 10:05N 54°05' E 007°45'0 0.0
2017-Feb-19 02:32N 54°05' E 007°45'0 0.0
2017-Feb-19 01:32N 54°05' E 007°45'0 0.0
2017-Feb-18 23:32N 54°05' E 007°45'0 0.1
2017-Feb-18 21:32N 54°05' E 007°45'0 0.0
2017-Feb-18 13:29N 54°04' E 007°45'0 0.0
2017-Feb-18 12:32N 54°04' E 007°45'0 0.0
2017-Feb-18 11:32N 54°04' E 007°45'0 0.1
2017-Feb-18 09:08N 54°04' E 007°45'0 0.1
2017-Feb-18 08:32N 54°04' E 007°45'0 0.0
2017-Feb-18 02:17N 54°04' E 007°45'0 0.0
2017-Feb-18 01:26N 54°04' E 007°45'0 0.0
2017-Feb-18 00:23N 54°04' E 007°45'0 0.0
2017-Feb-17 19:29N 54°04' E 007°45'0 0.2
2017-Feb-17 18:32N 54°05' E 007°45'0 0.1
2017-Feb-17 16:26N 54°04' E 007°45'0 0.0
2017-Feb-17 15:29N 54°04' E 007°45'0 0.0
2017-Feb-17 14:32N 54°04' E 007°45'0 0.0
2017-Feb-17 11:32N 54°04' E 007°45'0 0.0
2017-Feb-17 10:23N 54°04' E 007°45'0 0.0
2017-Feb-17 09:20N 54°04' E 007°45'71 3.0
2017-Feb-16 09:28N 53°40' E 005°52'3611.6
2017-Feb-16 06:21N 53°27' E 004°55'2110.0
2017-Feb-16 04:14N 53°11' E 004°32'710.3
2017-Feb-16 03:33N 53°05' E 004°26'1010.1
2017-Feb-16 02:33N 52°56' E 004°18'10 9.9
2017-Feb-16 01:33N 52°48' E 004°10'10 9.8
2017-Feb-16 00:33N 52°40' E 003°59'8911.1
2017-Feb-15 16:33N 51°35' E 002°21'1312.7
2017-Feb-15 15:33N 51°24' E 002°11'1212.6
2017-Feb-15 14:33N 51°13' E 002°01'1313.3
2017-Feb-15 13:33N 51°05' E 001°44'1312.7
2017-Feb-15 12:33N 50°56' E 001°30'1111.4
2017-Feb-15 11:33N 50°45' E 001°22'4210.0
2017-Feb-15 07:19N 50°24' E 000°25'7 9.3
2017-Feb-15 06:33N 50°22' E 000°15'9 9.2
2017-Feb-15 05:32N 50°19' E 000°01'9 9.1
2017-Feb-15 04:33N 50°17' W 000°13'10 8.9
2017-Feb-15 03:29N 50°15' W 000°28'12 9.6
2017-Feb-15 02:15N 50°11' W 000°45'810.9
2017-Feb-15 01:30N 50°09' W 000°58'5614.0
2017-Feb-14 21:29N 49°54' W 002°22'1213.4
2017-Feb-14 20:33N 49°51' W 002°40'1212.4
2017-Feb-14 19:33N 49°46' W 002°58'1212.0
2017-Feb-14 18:33N 49°40' W 003°14'1111.5
2017-Feb-14 17:33N 49°35' W 003°29'1311.0
2017-Feb-14 16:23N 49°28' W 003°47'1010.4
2017-Feb-14 15:27N 49°24' W 003°60'39 9.4
2017-Feb-14 11:20N 49°04' W 004°51'7 9.4
2017-Feb-14 10:33N 49°01' W 005°01'9 8.9
2017-Feb-14 09:33N 48°56' W 005°12'9 9.3
2017-Feb-14 08:33N 48°51' W 005°24'1110.7
2017-Feb-14 07:33N 48°45' W 005°37'  
Track history (hours):
 
Tides and Currents Weather Stations Pressure Air Temp Water Temp Dewpoint Dewpoint Depression Visibility Wind Speed Wind Dir Waves Ship Positions

Star Mariella

Last reported at 2017-Feb-19 17:08 UTC. Time now 2017-Feb-20 01:37 UTC.
Position N 54°05' E 007°45'.

Length 229 m; draft 12.2 m.

Type: Cargo ship. MMSI: 538002632.

Date/timePositionNaut miles runAvg speedWind from/ knotsBaromVisibWave heightAir tempDewpointWater temp
2017-Feb-19 17:08N 54°05' E 007°45'0 0.0
2017-Feb-19 11:17N 54°05' E 007°45'0 0.0
2017-Feb-19 10:05N 54°05' E 007°45'0 0.0
2017-Feb-19 02:32N 54°05' E 007°45'0 0.0
2017-Feb-19 01:32N 54°05' E 007°45'0 0.0
2017-Feb-18 23:32N 54°05' E 007°45'0 0.1
2017-Feb-18 21:32N 54°05' E 007°45'0 0.0
2017-Feb-18 13:29N 54°04' E 007°45'0 0.0
2017-Feb-18 12:32N 54°04' E 007°45'0 0.0
2017-Feb-18 11:32N 54°04' E 007°45'0 0.1
2017-Feb-18 09:08N 54°04' E 007°45'0 0.1
2017-Feb-18 08:32N 54°04' E 007°45'0 0.0
2017-Feb-18 02:17N 54°04' E 007°45'0 0.0
2017-Feb-18 01:26N 54°04' E 007°45'0 0.0
2017-Feb-18 00:23N 54°04' E 007°45'0 0.0
2017-Feb-17 19:29N 54°04' E 007°45'0 0.2
2017-Feb-17 18:32N 54°05' E 007°45'0 0.1
2017-Feb-17 16:26N 54°04' E 007°45'0 0.0
2017-Feb-17 15:29N 54°04' E 007°45'0 0.0
2017-Feb-17 14:32N 54°04' E 007°45'0 0.0
2017-Feb-17 11:32N 54°04' E 007°45'0 0.0
2017-Feb-17 10:23N 54°04' E 007°45'0 0.0
2017-Feb-17 09:20N 54°04' E 007°45'71 3.0
2017-Feb-16 09:28N 53°40' E 005°52'3611.6
2017-Feb-16 06:21N 53°27' E 004°55'2110.0
2017-Feb-16 04:14N 53°11' E 004°32'710.3
2017-Feb-16 03:33N 53°05' E 004°26'1010.1
2017-Feb-16 02:33N 52°56' E 004°18'10 9.9
2017-Feb-16 01:33N 52°48' E 004°10'10 9.8
2017-Feb-16 00:33N 52°40' E 003°59'8911.1
2017-Feb-15 16:33N 51°35' E 002°21'1312.7
2017-Feb-15 15:33N 51°24' E 002°11'1212.6
2017-Feb-15 14:33N 51°13' E 002°01'1313.3
2017-Feb-15 13:33N 51°05' E 001°44'1312.7
2017-Feb-15 12:33N 50°56' E 001°30'1111.4
2017-Feb-15 11:33N 50°45' E 001°22'4210.0
2017-Feb-15 07:19N 50°24' E 000°25'7 9.3
2017-Feb-15 06:33N 50°22' E 000°15'9 9.2
2017-Feb-15 05:32N 50°19' E 000°01'9 9.1
2017-Feb-15 04:33N 50°17' W 000°13'10 8.9
2017-Feb-15 03:29N 50°15' W 000°28'12 9.6
2017-Feb-15 02:15N 50°11' W 000°45'810.9
2017-Feb-15 01:30N 50°09' W 000°58'5614.0
2017-Feb-14 21:29N 49°54' W 002°22'1213.4
2017-Feb-14 20:33N 49°51' W 002°40'1212.4
2017-Feb-14 19:33N 49°46' W 002°58'1212.0
2017-Feb-14 18:33N 49°40' W 003°14'1111.5
2017-Feb-14 17:33N 49°35' W 003°29'1311.0
2017-Feb-14 16:23N 49°28' W 003°47'1010.4
2017-Feb-14 15:27N 49°24' W 003°60'39 9.4
2017-Feb-14 11:20N 49°04' W 004°51'7 9.4
2017-Feb-14 10:33N 49°01' W 005°01'9 8.9
2017-Feb-14 09:33N 48°56' W 005°12'9 9.3
2017-Feb-14 08:33N 48°51' W 005°24'1110.7
2017-Feb-14 07:33N 48°45' W 005°37'  

Dump ship's entire track history